sensor_id;sensor_type;location;lat;lon;timestamp;temperature;humidity
53274;DHT22;39163;52.696;6.758;2023-01-19T00:01:56;2.80;99.90
53274;DHT22;39163;52.696;6.758;2023-01-19T00:04:22;2.80;99.90
53274;DHT22;39163;52.696;6.758;2023-01-19T00:06:50;2.80;99.90
53274;DHT22;39163;52.696;6.758;2023-01-19T00:09:16;2.80;99.90
53274;DHT22;39163;52.696;6.758;2023-01-19T00:11:42;2.80;99.90
53274;DHT22;39163;52.696;6.758;2023-01-19T00:14:07;2.80;99.90
53274;DHT22;39163;52.696;6.758;2023-01-19T00:16:33;2.80;99.90
53274;DHT22;39163;52.696;6.758;2023-01-19T00:18:58;2.80;99.90
53274;DHT22;39163;52.696;6.758;2023-01-19T00:21:24;2.70;99.90
53274;DHT22;39163;52.696;6.758;2023-01-19T00:23:49;2.70;99.90
53274;DHT22;39163;52.696;6.758;2023-01-19T00:26:17;2.70;99.90
53274;DHT22;39163;52.696;6.758;2023-01-19T00:28:43;2.70;99.90
53274;DHT22;39163;52.696;6.758;2023-01-19T00:31:09;2.60;99.90
53274;DHT22;39163;52.696;6.758;2023-01-19T00:33:34;2.60;99.90
53274;DHT22;39163;52.696;6.758;2023-01-19T00:36:00;2.60;99.90
53274;DHT22;39163;52.696;6.758;2023-01-19T00:38:26;2.60;99.90
53274;DHT22;39163;52.696;6.758;2023-01-19T00:41:07;2.60;99.90
53274;DHT22;39163;52.696;6.758;2023-01-19T00:43:33;2.60;99.90
53274;DHT22;39163;52.696;6.758;2023-01-19T00:45:59;2.60;99.90
53274;DHT22;39163;52.696;6.758;2023-01-19T00:48:27;2.50;99.90
53274;DHT22;39163;52.696;6.758;2023-01-19T00:50:56;2.50;99.90
53274;DHT22;39163;52.696;6.758;2023-01-19T00:53:25;2.50;99.90
53274;DHT22;39163;52.696;6.758;2023-01-19T00:55:53;2.50;99.90
53274;DHT22;39163;52.696;6.758;2023-01-19T00:58:19;2.50;99.90
53274;DHT22;39163;52.696;6.758;2023-01-19T01:00:46;2.40;99.90
53274;DHT22;39163;52.696;6.758;2023-01-19T01:03:12;2.50;99.90
53274;DHT22;39163;52.696;6.758;2023-01-19T01:05:41;2.40;99.90
53274;DHT22;39163;52.696;6.758;2023-01-19T01:08:06;2.40;99.90
53274;DHT22;39163;52.696;6.758;2023-01-19T01:10:32;2.30;99.90
53274;DHT22;39163;52.696;6.758;2023-01-19T01:12:58;2.30;99.90
53274;DHT22;39163;52.696;6.758;2023-01-19T01:15:24;2.20;99.90
53274;DHT22;39163;52.696;6.758;2023-01-19T01:17:50;2.30;99.90
53274;DHT22;39163;52.696;6.758;2023-01-19T01:20:18;2.30;99.90
53274;DHT22;39163;52.696;6.758;2023-01-19T01:22:45;2.20;99.90
53274;DHT22;39163;52.696;6.758;2023-01-19T01:25:14;2.20;99.90
53274;DHT22;39163;52.696;6.758;2023-01-19T01:27:40;2.20;99.90
53274;DHT22;39163;52.696;6.758;2023-01-19T01:30:07;2.10;99.90
53274;DHT22;39163;52.696;6.758;2023-01-19T01:32:33;2.10;99.90
53274;DHT22;39163;52.696;6.758;2023-01-19T01:35:02;2.20;99.90
53274;DHT22;39163;52.696;6.758;2023-01-19T01:37:27;2.20;99.90
53274;DHT22;39163;52.696;6.758;2023-01-19T01:39:53;2.30;99.90
53274;DHT22;39163;52.696;6.758;2023-01-19T01:42:19;2.10;99.90
53274;DHT22;39163;52.696;6.758;2023-01-19T01:44:50;2.20;99.90
53274;DHT22;39163;52.696;6.758;2023-01-19T01:49:52;2.20;99.90
53274;DHT22;39163;52.696;6.758;2023-01-19T01:52:19;2.20;99.90
53274;DHT22;39163;52.696;6.758;2023-01-19T01:54:46;2.20;99.90
53274;DHT22;39163;52.696;6.758;2023-01-19T01:57:12;2.20;99.90
53274;DHT22;39163;52.696;6.758;2023-01-19T01:59:39;2.20;99.90
53274;DHT22;39163;52.696;6.758;2023-01-19T02:02:10;2.30;99.90
53274;DHT22;39163;52.696;6.758;2023-01-19T02:04:59;2.30;99.90
53274;DHT22;39163;52.696;6.758;2023-01-19T02:07:42;2.30;99.90
53274;DHT22;39163;52.696;6.758;2023-01-19T02:10:31;2.30;99.90
53274;DHT22;39163;52.696;6.758;2023-01-19T02:13:15;2.30;99.90
53274;DHT22;39163;52.696;6.758;2023-01-19T02:15:52;2.30;99.90
53274;DHT22;39163;52.696;6.758;2023-01-19T02:18:18;2.30;99.90
53274;DHT22;39163;52.696;6.758;2023-01-19T02:25:58;2.40;99.90
53274;DHT22;39163;52.696;6.758;2023-01-19T02:28:24;2.30;99.90
53274;DHT22;39163;52.696;6.758;2023-01-19T02:30:51;2.40;99.90
53274;DHT22;39163;52.696;6.758;2023-01-19T02:33:17;2.40;99.90
53274;DHT22;39163;52.696;6.758;2023-01-19T02:35:42;2.40;99.90
53274;DHT22;39163;52.696;6.758;2023-01-19T02:38:08;2.50;99.90
53274;DHT22;39163;52.696;6.758;2023-01-19T02:40:35;2.40;99.90
53274;DHT22;39163;52.696;6.758;2023-01-19T02:43:02;2.40;99.90
53274;DHT22;39163;52.696;6.758;2023-01-19T02:45:29;2.50;99.90
53274;DHT22;39163;52.696;6.758;2023-01-19T02:47:54;2.50;99.90
53274;DHT22;39163;52.696;6.758;2023-01-19T02:52:57;2.40;99.90
53274;DHT22;39163;52.696;6.758;2023-01-19T02:55:25;2.40;99.90
53274;DHT22;39163;52.696;6.758;2023-01-19T03:00:40;2.50;99.90
53274;DHT22;39163;52.696;6.758;2023-01-19T03:05:42;2.50;99.90
53274;DHT22;39163;52.696;6.758;2023-01-19T03:11:10;2.50;99.90
53274;DHT22;39163;52.696;6.758;2023-01-19T03:16:13;2.50;99.90
53274;DHT22;39163;52.696;6.758;2023-01-19T03:18:41;2.50;99.90
53274;DHT22;39163;52.696;6.758;2023-01-19T03:21:08;2.50;99.90
53274;DHT22;39163;52.696;6.758;2023-01-19T03:23:35;2.50;99.90
53274;DHT22;39163;52.696;6.758;2023-01-19T03:26:01;2.50;99.90
53274;DHT22;39163;52.696;6.758;2023-01-19T03:28:29;2.60;99.90
53274;DHT22;39163;52.696;6.758;2023-01-19T03:31:01;2.50;99.90
53274;DHT22;39163;52.696;6.758;2023-01-19T03:33:28;2.50;99.90
53274;DHT22;39163;52.696;6.758;2023-01-19T03:35:57;2.50;99.90
53274;DHT22;39163;52.696;6.758;2023-01-19T03:38:28;2.50;99.90
53274;DHT22;39163;52.696;6.758;2023-01-19T03:40:57;2.50;99.90
53274;DHT22;39163;52.696;6.758;2023-01-19T03:43:24;2.50;99.90
53274;DHT22;39163;52.696;6.758;2023-01-19T03:45:50;2.50;99.90
53274;DHT22;39163;52.696;6.758;2023-01-19T03:48:17;2.50;99.90
53274;DHT22;39163;52.696;6.758;2023-01-19T03:50:44;2.60;99.90
53274;DHT22;39163;52.696;6.758;2023-01-19T03:53:10;2.60;99.90
53274;DHT22;39163;52.696;6.758;2023-01-19T03:55:37;2.50;99.90
53274;DHT22;39163;52.696;6.758;2023-01-19T03:58:03;2.50;99.90
53274;DHT22;39163;52.696;6.758;2023-01-19T04:00:28;2.50;99.90
53274;DHT22;39163;52.696;6.758;2023-01-19T04:02:54;2.50;99.90
53274;DHT22;39163;52.696;6.758;2023-01-19T04:05:20;2.50;99.90
53274;DHT22;39163;52.696;6.758;2023-01-19T04:07:47;2.50;99.90
53274;DHT22;39163;52.696;6.758;2023-01-19T04:10:12;2.40;99.90
53274;DHT22;39163;52.696;6.758;2023-01-19T04:12:40;2.50;99.90
53274;DHT22;39163;52.696;6.758;2023-01-19T04:15:06;2.50;99.90
53274;DHT22;39163;52.696;6.758;2023-01-19T04:17:31;2.40;99.90
53274;DHT22;39163;52.696;6.758;2023-01-19T04:19:57;2.30;99.90
53274;DHT22;39163;52.696;6.758;2023-01-19T04:22:22;2.30;99.90
53274;DHT22;39163;52.696;6.758;2023-01-19T04:24:48;2.30;99.90
53274;DHT22;39163;52.696;6.758;2023-01-19T04:27:14;2.30;99.90
53274;DHT22;39163;52.696;6.758;2023-01-19T04:29:40;2.30;99.90
53274;DHT22;39163;52.696;6.758;2023-01-19T04:32:06;2.20;99.90
53274;DHT22;39163;52.696;6.758;2023-01-19T04:34:32;2.20;99.90
53274;DHT22;39163;52.696;6.758;2023-01-19T04:36:57;2.30;99.90
53274;DHT22;39163;52.696;6.758;2023-01-19T04:39:23;2.20;99.90
53274;DHT22;39163;52.696;6.758;2023-01-19T04:41:49;2.20;99.90
53274;DHT22;39163;52.696;6.758;2023-01-19T04:44:16;2.20;99.90
53274;DHT22;39163;52.696;6.758;2023-01-19T04:46:42;2.10;99.90
53274;DHT22;39163;52.696;6.758;2023-01-19T04:49:08;2.20;99.90
53274;DHT22;39163;52.696;6.758;2023-01-19T04:51:33;2.20;99.90
53274;DHT22;39163;52.696;6.758;2023-01-19T04:53:59;2.10;99.90
53274;DHT22;39163;52.696;6.758;2023-01-19T04:56:26;2.10;99.90
53274;DHT22;39163;52.696;6.758;2023-01-19T04:58:51;2.10;99.90
53274;DHT22;39163;52.696;6.758;2023-01-19T05:01:17;2.20;99.90
53274;DHT22;39163;52.696;6.758;2023-01-19T05:03:43;2.20;99.90
53274;DHT22;39163;52.696;6.758;2023-01-19T05:06:08;2.20;99.90
53274;DHT22;39163;52.696;6.758;2023-01-19T05:08:34;2.20;99.90
53274;DHT22;39163;52.696;6.758;2023-01-19T05:10:59;2.20;99.90
53274;DHT22;39163;52.696;6.758;2023-01-19T05:13:25;2.30;99.90
53274;DHT22;39163;52.696;6.758;2023-01-19T05:15:50;2.40;99.90
53274;DHT22;39163;52.696;6.758;2023-01-19T05:18:16;2.30;99.90
53274;DHT22;39163;52.696;6.758;2023-01-19T05:20:42;2.40;99.90
53274;DHT22;39163;52.696;6.758;2023-01-19T05:23:07;2.40;99.90
53274;DHT22;39163;52.696;6.758;2023-01-19T05:25:33;2.40;99.90
53274;DHT22;39163;52.696;6.758;2023-01-19T05:27:59;2.50;99.90
53274;DHT22;39163;52.696;6.758;2023-01-19T05:30:24;2.50;99.90
53274;DHT22;39163;52.696;6.758;2023-01-19T05:32:50;2.50;99.90
53274;DHT22;39163;52.696;6.758;2023-01-19T05:35:15;2.50;99.90
53274;DHT22;39163;52.696;6.758;2023-01-19T05:37:41;2.50;99.90
53274;DHT22;39163;52.696;6.758;2023-01-19T05:40:07;2.60;99.90
53274;DHT22;39163;52.696;6.758;2023-01-19T05:42:33;2.60;99.90
53274;DHT22;39163;52.696;6.758;2023-01-19T05:44:59;2.60;99.90
53274;DHT22;39163;52.696;6.758;2023-01-19T05:47:25;2.70;99.90
53274;DHT22;39163;52.696;6.758;2023-01-19T05:49:53;2.70;99.90
53274;DHT22;39163;52.696;6.758;2023-01-19T05:52:19;2.70;99.90
53274;DHT22;39163;52.696;6.758;2023-01-19T05:54:46;2.80;99.90
53274;DHT22;39163;52.696;6.758;2023-01-19T05:57:12;2.80;99.90
53274;DHT22;39163;52.696;6.758;2023-01-19T05:59:39;2.80;99.90
53274;DHT22;39163;52.696;6.758;2023-01-19T06:02:04;2.90;99.90
53274;DHT22;39163;52.696;6.758;2023-01-19T06:04:30;3.00;99.90
53274;DHT22;39163;52.696;6.758;2023-01-19T06:06:56;3.10;99.90
53274;DHT22;39163;52.696;6.758;2023-01-19T06:09:21;3.10;99.90
53274;DHT22;39163;52.696;6.758;2023-01-19T06:11:47;3.10;99.90
53274;DHT22;39163;52.696;6.758;2023-01-19T06:14:12;3.20;99.90
53274;DHT22;39163;52.696;6.758;2023-01-19T06:16:38;3.20;99.90
53274;DHT22;39163;52.696;6.758;2023-01-19T06:19:04;3.20;99.90
53274;DHT22;39163;52.696;6.758;2023-01-19T06:21:30;3.30;99.90
53274;DHT22;39163;52.696;6.758;2023-01-19T06:23:55;3.30;99.90
53274;DHT22;39163;52.696;6.758;2023-01-19T06:26:21;3.30;99.90
53274;DHT22;39163;52.696;6.758;2023-01-19T06:28:47;3.30;99.90
53274;DHT22;39163;52.696;6.758;2023-01-19T06:31:13;3.40;99.90
53274;DHT22;39163;52.696;6.758;2023-01-19T06:33:38;3.30;99.90
53274;DHT22;39163;52.696;6.758;2023-01-19T06:36:04;3.30;99.90
53274;DHT22;39163;52.696;6.758;2023-01-19T06:38:29;3.30;99.90
53274;DHT22;39163;52.696;6.758;2023-01-19T06:41:09;3.30;99.90
53274;DHT22;39163;52.696;6.758;2023-01-19T06:43:34;3.20;99.90
53274;DHT22;39163;52.696;6.758;2023-01-19T06:46:09;3.20;99.90
53274;DHT22;39163;52.696;6.758;2023-01-19T06:48:35;3.10;99.90
53274;DHT22;39163;52.696;6.758;2023-01-19T06:51:06;3.20;99.90
53274;DHT22;39163;52.696;6.758;2023-01-19T06:53:32;3.10;99.90
53274;DHT22;39163;52.696;6.758;2023-01-19T06:56:01;3.00;99.90
53274;DHT22;39163;52.696;6.758;2023-01-19T06:58:27;3.00;99.90
53274;DHT22;39163;52.696;6.758;2023-01-19T07:00:53;2.90;99.90
53274;DHT22;39163;52.696;6.758;2023-01-19T07:03:19;2.90;99.90
53274;DHT22;39163;52.696;6.758;2023-01-19T07:05:45;2.80;99.90
53274;DHT22;39163;52.696;6.758;2023-01-19T07:08:17;2.80;99.90
53274;DHT22;39163;52.696;6.758;2023-01-19T07:10:42;2.80;99.90
53274;DHT22;39163;52.696;6.758;2023-01-19T07:13:26;2.70;99.90
53274;DHT22;39163;52.696;6.758;2023-01-19T07:15:52;2.60;99.90
53274;DHT22;39163;52.696;6.758;2023-01-19T07:18:18;2.60;99.90
53274;DHT22;39163;52.696;6.758;2023-01-19T07:20:43;2.60;99.90
53274;DHT22;39163;52.696;6.758;2023-01-19T07:23:20;2.60;99.90
53274;DHT22;39163;52.696;6.758;2023-01-19T07:25:45;2.70;99.90
53274;DHT22;39163;52.696;6.758;2023-01-19T07:28:14;2.60;99.90
53274;DHT22;39163;52.696;6.758;2023-01-19T07:30:43;2.70;99.90
53274;DHT22;39163;52.696;6.758;2023-01-19T07:33:10;2.70;99.90
53274;DHT22;39163;52.696;6.758;2023-01-19T07:35:39;2.70;99.90
53274;DHT22;39163;52.696;6.758;2023-01-19T07:38:08;2.70;99.90
53274;DHT22;39163;52.696;6.758;2023-01-19T07:40:33;2.80;99.90
53274;DHT22;39163;52.696;6.758;2023-01-19T07:42:59;2.80;99.90
53274;DHT22;39163;52.696;6.758;2023-01-19T07:45:28;2.80;99.90
53274;DHT22;39163;52.696;6.758;2023-01-19T07:47:53;2.90;99.90
53274;DHT22;39163;52.696;6.758;2023-01-19T07:50:19;2.90;99.90
53274;DHT22;39163;52.696;6.758;2023-01-19T07:52:49;2.90;99.90
53274;DHT22;39163;52.696;6.758;2023-01-19T07:55:21;2.90;99.90
53274;DHT22;39163;52.696;6.758;2023-01-19T07:57:47;2.90;99.90
53274;DHT22;39163;52.696;6.758;2023-01-19T08:00:15;3.00;99.90
53274;DHT22;39163;52.696;6.758;2023-01-19T08:02:43;3.00;99.90
53274;DHT22;39163;52.696;6.758;2023-01-19T08:05:09;3.00;99.90
53274;DHT22;39163;52.696;6.758;2023-01-19T08:07:34;3.00;99.90
53274;DHT22;39163;52.696;6.758;2023-01-19T08:10:00;3.00;99.90
53274;DHT22;39163;52.696;6.758;2023-01-19T08:12:26;2.90;99.90
53274;DHT22;39163;52.696;6.758;2023-01-19T08:14:51;2.90;99.90
53274;DHT22;39163;52.696;6.758;2023-01-19T08:17:17;2.90;99.90
53274;DHT22;39163;52.696;6.758;2023-01-19T08:19:43;2.90;99.90
53274;DHT22;39163;52.696;6.758;2023-01-19T08:22:12;2.90;99.90
53274;DHT22;39163;52.696;6.758;2023-01-19T08:24:39;2.90;99.90
53274;DHT22;39163;52.696;6.758;2023-01-19T08:27:04;2.90;99.90
53274;DHT22;39163;52.696;6.758;2023-01-19T08:29:30;3.00;99.90
53274;DHT22;39163;52.696;6.758;2023-01-19T08:31:56;2.90;99.90
53274;DHT22;39163;52.696;6.758;2023-01-19T08:34:24;3.00;99.90
53274;DHT22;39163;52.696;6.758;2023-01-19T08:36:49;3.00;99.90
53274;DHT22;39163;52.696;6.758;2023-01-19T08:39:15;3.10;99.90
53274;DHT22;39163;52.696;6.758;2023-01-19T08:41:42;3.20;99.90
53274;DHT22;39163;52.696;6.758;2023-01-19T08:44:08;3.20;99.90
53274;DHT22;39163;52.696;6.758;2023-01-19T08:46:40;3.30;99.90
53274;DHT22;39163;52.696;6.758;2023-01-19T08:49:05;3.40;99.90
53274;DHT22;39163;52.696;6.758;2023-01-19T08:51:31;3.40;99.90
53274;DHT22;39163;52.696;6.758;2023-01-19T08:53:57;3.50;99.90
53274;DHT22;39163;52.696;6.758;2023-01-19T08:56:23;3.50;99.90
53274;DHT22;39163;52.696;6.758;2023-01-19T08:58:48;3.60;99.90
53274;DHT22;39163;52.696;6.758;2023-01-19T09:01:20;3.70;99.90
53274;DHT22;39163;52.696;6.758;2023-01-19T09:03:46;3.70;99.90
53274;DHT22;39163;52.696;6.758;2023-01-19T09:06:13;3.80;99.90
53274;DHT22;39163;52.696;6.758;2023-01-19T09:08:41;3.90;99.90
53274;DHT22;39163;52.696;6.758;2023-01-19T09:11:10;3.90;99.90
53274;DHT22;39163;52.696;6.758;2023-01-19T09:13:36;3.90;99.90
53274;DHT22;39163;52.696;6.758;2023-01-19T09:16:03;4.00;99.90
53274;DHT22;39163;52.696;6.758;2023-01-19T09:18:35;4.00;99.90
53274;DHT22;39163;52.696;6.758;2023-01-19T09:21:01;4.10;99.90
53274;DHT22;39163;52.696;6.758;2023-01-19T09:23:31;4.00;99.90
53274;DHT22;39163;52.696;6.758;2023-01-19T09:25:58;4.10;99.90
53274;DHT22;39163;52.696;6.758;2023-01-19T09:28:31;4.10;99.90
53274;DHT22;39163;52.696;6.758;2023-01-19T09:33:32;4.00;99.90
53274;DHT22;39163;52.696;6.758;2023-01-19T09:36:02;4.10;99.90
53274;DHT22;39163;52.696;6.758;2023-01-19T09:38:33;4.00;99.90
53274;DHT22;39163;52.696;6.758;2023-01-19T09:41:18;4.10;99.90
53274;DHT22;39163;52.696;6.758;2023-01-19T09:43:46;4.00;99.90
53274;DHT22;39163;52.696;6.758;2023-01-19T09:46:20;4.10;99.90
53274;DHT22;39163;52.696;6.758;2023-01-19T09:48:50;4.00;99.90
53274;DHT22;39163;52.696;6.758;2023-01-19T09:51:24;4.00;99.90
53274;DHT22;39163;52.696;6.758;2023-01-19T09:53:59;4.00;99.90
53274;DHT22;39163;52.696;6.758;2023-01-19T09:56:26;4.00;99.90
53274;DHT22;39163;52.696;6.758;2023-01-19T09:58:53;4.10;99.90
53274;DHT22;39163;52.696;6.758;2023-01-19T10:01:25;4.20;99.90
53274;DHT22;39163;52.696;6.758;2023-01-19T10:04:04;4.30;99.90
53274;DHT22;39163;52.696;6.758;2023-01-19T10:06:33;4.40;99.90
53274;DHT22;39163;52.696;6.758;2023-01-19T10:09:08;4.40;99.90
53274;DHT22;39163;52.696;6.758;2023-01-19T10:11:36;4.40;99.90
53274;DHT22;39163;52.696;6.758;2023-01-19T10:14:08;4.40;99.90
53274;DHT22;39163;52.696;6.758;2023-01-19T10:19:15;4.80;99.90
53274;DHT22;39163;52.696;6.758;2023-01-19T10:21:42;5.10;99.90
53274;DHT22;39163;52.696;6.758;2023-01-19T10:24:14;5.30;99.90
53274;DHT22;39163;52.696;6.758;2023-01-19T10:26:42;5.60;99.90
53274;DHT22;39163;52.696;6.758;2023-01-19T10:29:21;5.80;99.90
53274;DHT22;39163;52.696;6.758;2023-01-19T10:31:48;6.00;99.90
53274;DHT22;39163;52.696;6.758;2023-01-19T10:34:16;6.20;99.90
53274;DHT22;39163;52.696;6.758;2023-01-19T10:36:46;6.40;99.90
53274;DHT22;39163;52.696;6.758;2023-01-19T10:39:14;6.60;99.90
53274;DHT22;39163;52.696;6.758;2023-01-19T10:41:41;6.70;99.90
53274;DHT22;39163;52.696;6.758;2023-01-19T10:44:07;6.90;99.90
53274;DHT22;39163;52.696;6.758;2023-01-19T10:49:19;7.10;99.90
53274;DHT22;39163;52.696;6.758;2023-01-19T10:51:47;7.20;99.90
53274;DHT22;39163;52.696;6.758;2023-01-19T10:54:13;7.40;99.90
53274;DHT22;39163;52.696;6.758;2023-01-19T10:56:39;7.60;99.90
53274;DHT22;39163;52.696;6.758;2023-01-19T10:59:05;7.70;99.90
53274;DHT22;39163;52.696;6.758;2023-01-19T11:01:31;7.80;99.90
53274;DHT22;39163;52.696;6.758;2023-01-19T11:04:20;7.90;99.90
53274;DHT22;39163;52.696;6.758;2023-01-19T11:06:46;8.10;99.90
53274;DHT22;39163;52.696;6.758;2023-01-19T11:09:16;8.20;99.90
53274;DHT22;39163;52.696;6.758;2023-01-19T11:11:43;8.40;99.90
53274;DHT22;39163;52.696;6.758;2023-01-19T11:14:10;8.50;99.90
53274;DHT22;39163;52.696;6.758;2023-01-19T11:16:36;8.50;99.90
53274;DHT22;39163;52.696;6.758;2023-01-19T11:19:04;8.60;99.90
53274;DHT22;39163;52.696;6.758;2023-01-19T11:21:38;8.90;99.90
53274;DHT22;39163;52.696;6.758;2023-01-19T11:24:04;8.90;99.90
53274;DHT22;39163;52.696;6.758;2023-01-19T11:26:44;9.00;99.90
53274;DHT22;39163;52.696;6.758;2023-01-19T11:29:30;9.10;99.90
53274;DHT22;39163;52.696;6.758;2023-01-19T11:31:56;9.00;99.90
53274;DHT22;39163;52.696;6.758;2023-01-19T11:34:34;9.10;99.90
53274;DHT22;39163;52.696;6.758;2023-01-19T11:37:03;9.20;99.90
53274;DHT22;39163;52.696;6.758;2023-01-19T11:39:30;9.20;99.90
53274;DHT22;39163;52.696;6.758;2023-01-19T11:42:02;9.10;99.90
53274;DHT22;39163;52.696;6.758;2023-01-19T11:46:59;9.10;99.90
53274;DHT22;39163;52.696;6.758;2023-01-19T11:49:45;9.30;99.90
53274;DHT22;39163;52.696;6.758;2023-01-19T11:52:32;9.40;99.90
53274;DHT22;39163;52.696;6.758;2023-01-19T11:55:00;9.40;99.90
53274;DHT22;39163;52.696;6.758;2023-01-19T11:57:27;9.30;99.90
53274;DHT22;39163;52.696;6.758;2023-01-19T11:59:53;9.40;99.90
53274;DHT22;39163;52.696;6.758;2023-01-19T12:02:29;9.30;99.90
53274;DHT22;39163;52.696;6.758;2023-01-19T12:05:00;9.20;99.90
53274;DHT22;39163;52.696;6.758;2023-01-19T12:07:30;9.50;99.90
53274;DHT22;39163;52.696;6.758;2023-01-19T12:10:01;9.40;99.90
53274;DHT22;39163;52.696;6.758;2023-01-19T12:12:33;9.50;99.90
53274;DHT22;39163;52.696;6.758;2023-01-19T12:17:28;9.40;99.90
53274;DHT22;39163;52.696;6.758;2023-01-19T12:22:29;9.40;99.90
53274;DHT22;39163;52.696;6.758;2023-01-19T12:25:02;9.20;99.90
53274;DHT22;39163;52.696;6.758;2023-01-19T12:27:38;9.10;99.90
53274;DHT22;39163;52.696;6.758;2023-01-19T12:30:08;9.00;99.90
53274;DHT22;39163;52.696;6.758;2023-01-19T12:32:40;9.10;99.90
53274;DHT22;39163;52.696;6.758;2023-01-19T12:35:51;9.20;99.90
53274;DHT22;39163;52.696;6.758;2023-01-19T12:37:53;9.30;99.90
53274;DHT22;39163;52.696;6.758;2023-01-19T12:40:25;9.30;99.90
53274;DHT22;39163;52.696;6.758;2023-01-19T12:43:02;9.30;99.90
53274;DHT22;39163;52.696;6.758;2023-01-19T12:45:37;9.30;99.90
53274;DHT22;39163;52.696;6.758;2023-01-19T12:48:04;9.20;99.90
53274;DHT22;39163;52.696;6.758;2023-01-19T12:50:33;9.20;99.90
53274;DHT22;39163;52.696;6.758;2023-01-19T12:52:59;9.10;99.90
53274;DHT22;39163;52.696;6.758;2023-01-19T12:57:54;9.20;99.90
53274;DHT22;39163;52.696;6.758;2023-01-19T13:02:47;9.50;99.90
53274;DHT22;39163;52.696;6.758;2023-01-19T13:08:13;9.70;99.90
53274;DHT22;39163;52.696;6.758;2023-01-19T13:13:16;9.50;99.90
53274;DHT22;39163;52.696;6.758;2023-01-19T13:15:41;9.60;99.90
53274;DHT22;39163;52.696;6.758;2023-01-19T13:18:09;9.50;99.90
53274;DHT22;39163;52.696;6.758;2023-01-19T13:20:45;9.70;99.90
53274;DHT22;39163;52.696;6.758;2023-01-19T13:23:15;9.70;99.90
53274;DHT22;39163;52.696;6.758;2023-01-19T13:25:41;9.80;99.90
53274;DHT22;39163;52.696;6.758;2023-01-19T13:28:09;9.70;99.90
53274;DHT22;39163;52.696;6.758;2023-01-19T13:30:34;9.40;99.90
53274;DHT22;39163;52.696;6.758;2023-01-19T13:33:17;9.40;99.90
53274;DHT22;39163;52.696;6.758;2023-01-19T13:35:53;9.40;99.90
53274;DHT22;39163;52.696;6.758;2023-01-19T13:38:21;9.10;99.90
53274;DHT22;39163;52.696;6.758;2023-01-19T13:40:46;9.00;99.90
53274;DHT22;39163;52.696;6.758;2023-01-19T13:43:14;8.70;99.90
53274;DHT22;39163;52.696;6.758;2023-01-19T13:45:44;8.50;99.90
53274;DHT22;39163;52.696;6.758;2023-01-19T13:48:14;8.20;99.90
53274;DHT22;39163;52.696;6.758;2023-01-19T13:50:40;8.00;99.90
53274;DHT22;39163;52.696;6.758;2023-01-19T13:53:17;7.80;99.90
53274;DHT22;39163;52.696;6.758;2023-01-19T13:55:44;7.50;99.90
53274;DHT22;39163;52.696;6.758;2023-01-19T13:58:19;7.40;99.90
53274;DHT22;39163;52.696;6.758;2023-01-19T14:00:45;7.20;99.90
53274;DHT22;39163;52.696;6.758;2023-01-19T14:03:17;7.20;99.90
53274;DHT22;39163;52.696;6.758;2023-01-19T14:05:48;7.10;99.90
53274;DHT22;39163;52.696;6.758;2023-01-19T14:08:14;7.10;99.90
53274;DHT22;39163;52.696;6.758;2023-01-19T14:10:40;7.00;99.90
53274;DHT22;39163;52.696;6.758;2023-01-19T14:15:38;6.90;99.90
53274;DHT22;39163;52.696;6.758;2023-01-19T14:18:09;6.80;99.90
53274;DHT22;39163;52.696;6.758;2023-01-19T14:20:34;6.70;99.90
53274;DHT22;39163;52.696;6.758;2023-01-19T14:23:03;6.60;99.90
53274;DHT22;39163;52.696;6.758;2023-01-19T14:25:30;6.60;99.90
53274;DHT22;39163;52.696;6.758;2023-01-19T14:30:51;6.50;99.90
53274;DHT22;39163;52.696;6.758;2023-01-19T14:36:35;6.40;99.90
53274;DHT22;39163;52.696;6.758;2023-01-19T14:38:53;6.50;99.90
53274;DHT22;39163;52.696;6.758;2023-01-19T14:41:32;6.50;99.90
53274;DHT22;39163;52.696;6.758;2023-01-19T14:44:00;6.50;99.90
53274;DHT22;39163;52.696;6.758;2023-01-19T14:46:26;6.40;99.90
53274;DHT22;39163;52.696;6.758;2023-01-19T14:48:54;6.40;99.90
53274;DHT22;39163;52.696;6.758;2023-01-19T14:51:22;6.40;99.90
53274;DHT22;39163;52.696;6.758;2023-01-19T14:53:50;6.40;99.90
53274;DHT22;39163;52.696;6.758;2023-01-19T14:56:27;6.40;99.90
53274;DHT22;39163;52.696;6.758;2023-01-19T14:58:57;6.30;99.90
53274;DHT22;39163;52.696;6.758;2023-01-19T15:01:24;6.20;99.90
53274;DHT22;39163;52.696;6.758;2023-01-19T15:03:53;6.20;99.90
53274;DHT22;39163;52.696;6.758;2023-01-19T15:06:21;6.20;99.90
53274;DHT22;39163;52.696;6.758;2023-01-19T15:08:47;6.10;99.90
53274;DHT22;39163;52.696;6.758;2023-01-19T15:13:39;6.00;99.90
53274;DHT22;39163;52.696;6.758;2023-01-19T15:16:05;6.00;99.90
53274;DHT22;39163;52.696;6.758;2023-01-19T15:18:33;5.90;99.90
53274;DHT22;39163;52.696;6.758;2023-01-19T15:20:59;5.80;99.90
53274;DHT22;39163;52.696;6.758;2023-01-19T15:23:30;5.70;99.90
53274;DHT22;39163;52.696;6.758;2023-01-19T15:26:00;5.70;99.90
53274;DHT22;39163;52.696;6.758;2023-01-19T15:28:26;5.70;99.90
53274;DHT22;39163;52.696;6.758;2023-01-19T15:30:51;5.70;99.90
53274;DHT22;39163;52.696;6.758;2023-01-19T15:33:22;5.70;99.90
53274;DHT22;39163;52.696;6.758;2023-01-19T15:35:49;5.60;99.90
53274;DHT22;39163;52.696;6.758;2023-01-19T15:38:14;5.60;99.90
53274;DHT22;39163;52.696;6.758;2023-01-19T15:40:40;5.50;99.90
53274;DHT22;39163;52.696;6.758;2023-01-19T15:43:08;5.50;99.90
53274;DHT22;39163;52.696;6.758;2023-01-19T15:45:35;5.50;99.90
53274;DHT22;39163;52.696;6.758;2023-01-19T15:48:01;5.50;99.90
53274;DHT22;39163;52.696;6.758;2023-01-19T15:50:28;5.50;99.90
53274;DHT22;39163;52.696;6.758;2023-01-19T15:52:54;5.40;99.90
53274;DHT22;39163;52.696;6.758;2023-01-19T15:55:20;5.40;99.90
53274;DHT22;39163;52.696;6.758;2023-01-19T15:57:46;5.40;99.90
53274;DHT22;39163;52.696;6.758;2023-01-19T16:00:11;5.20;99.90
53274;DHT22;39163;52.696;6.758;2023-01-19T16:02:37;5.20;99.90
53274;DHT22;39163;52.696;6.758;2023-01-19T16:05:03;5.10;99.90
53274;DHT22;39163;52.696;6.758;2023-01-19T16:07:28;5.00;99.90
53274;DHT22;39163;52.696;6.758;2023-01-19T16:09:54;4.90;99.90
53274;DHT22;39163;52.696;6.758;2023-01-19T16:12:20;4.80;99.90
53274;DHT22;39163;52.696;6.758;2023-01-19T16:14:45;4.80;99.90
53274;DHT22;39163;52.696;6.758;2023-01-19T16:17:11;4.60;99.90
53274;DHT22;39163;52.696;6.758;2023-01-19T16:19:36;4.60;99.90
53274;DHT22;39163;52.696;6.758;2023-01-19T16:22:02;4.50;99.90
53274;DHT22;39163;52.696;6.758;2023-01-19T16:24:30;4.50;99.90
53274;DHT22;39163;52.696;6.758;2023-01-19T16:26:55;4.40;99.90
53274;DHT22;39163;52.696;6.758;2023-01-19T16:29:21;4.40;99.90
53274;DHT22;39163;52.696;6.758;2023-01-19T16:31:46;4.30;99.90
53274;DHT22;39163;52.696;6.758;2023-01-19T16:34:12;4.20;99.90
53274;DHT22;39163;52.696;6.758;2023-01-19T16:36:39;4.10;99.90
53274;DHT22;39163;52.696;6.758;2023-01-19T16:39:06;4.00;99.90
53274;DHT22;39163;52.696;6.758;2023-01-19T16:41:32;4.00;99.90
53274;DHT22;39163;52.696;6.758;2023-01-19T16:43:58;3.90;99.90
53274;DHT22;39163;52.696;6.758;2023-01-19T16:46:25;3.80;99.90
53274;DHT22;39163;52.696;6.758;2023-01-19T16:48:51;3.80;99.90